Time,TemperatureF,DewpointF,PressureIn,WindDirection,WindDirectionDegrees,WindSpeedMPH,WindSpeedGustMPH,Humidity,HourlyPrecipIn,Conditions,Clouds,dailyrainin,SolarRadiationWatts/m^2,SoftwareType,DateUTC
2013-04-22 00:03:00,34.0,28.0,-100.00,ESE,123,11.0,17.0,80,0.00,,,0.00,0.000000,,2013-04-22 04:03:00,
2013-04-22 00:12:00,34.0,28.0,-100.00,ESE,123,11.0,17.0,80,0.00,,,0.00,0.000000,,2013-04-22 04:12:00,
2013-04-22 00:43:00,36.0,28.0,-100.00,SE,143,13.0,19.0,72,0.00,,,0.00,0.000000,,2013-04-22 04:43:00,
2013-04-22 00:53:00,36.0,28.0,-100.00,SE,143,13.0,19.0,72,0.00,,,0.00,0.000000,,2013-04-22 04:53:00,
2013-04-22 01:03:00,36.0,28.0,-100.00,SE,143,13.0,19.0,72,0.00,,,0.00,0.000000,,2013-04-22 05:03:00,
2013-04-22 01:12:00,36.0,28.0,-100.00,SE,143,13.0,19.0,72,0.00,,,0.00,0.000000,,2013-04-22 05:12:00,
2013-04-22 01:42:00,36.0,28.0,-100.00,SE,138,13.0,19.0,72,0.00,,,0.00,0.000000,,2013-04-22 05:42:00,
2013-04-22 01:52:00,36.0,28.0,-100.00,SE,138,13.0,19.0,72,0.00,,,0.00,0.000000,,2013-04-22 05:52:00,
2013-04-22 02:02:00,36.0,28.0,-100.00,SE,138,13.0,19.0,72,0.00,,,0.00,0.000000,,2013-04-22 06:02:00,
2013-04-22 02:12:00,36.0,28.0,-100.00,SE,138,13.0,19.0,72,0.00,,,0.00,0.000000,,2013-04-22 06:12:00,
2013-04-22 02:42:00,35.0,29.0,-100.00,SE,131,12.0,18.0,77,0.00,,,0.00,0.000000,,2013-04-22 06:42:00,
2013-04-22 02:52:00,35.0,29.0,-100.00,SE,131,12.0,18.0,77,0.00,,,0.00,0.000000,,2013-04-22 06:52:00,
2013-04-22 03:01:00,35.0,29.0,-100.00,SE,131,12.0,18.0,77,0.00,,,0.00,0.000000,,2013-04-22 07:01:00,
2013-04-22 03:12:00,35.0,29.0,-100.00,SE,131,12.0,18.0,77,0.00,,,0.00,0.000000,,2013-04-22 07:12:00,
2013-04-22 03:42:00,35.0,29.0,-100.00,SE,131,13.0,18.0,77,0.00,,,0.00,0.000000,,2013-04-22 07:42:00,
2013-04-22 03:52:00,35.0,29.0,-100.00,SE,131,13.0,18.0,77,0.00,,,0.00,0.000000,,2013-04-22 07:52:00,
2013-04-22 04:02:00,35.0,29.0,-100.00,SE,131,13.0,18.0,77,0.00,,,0.00,0.000000,,2013-04-22 08:02:00,
2013-04-22 04:11:00,35.0,29.0,-100.00,SE,131,13.0,18.0,77,0.00,,,0.00,0.000000,,2013-04-22 08:11:00,
2013-04-22 04:42:00,35.0,29.0,-100.00,SE,127,12.0,19.0,77,0.00,,,0.00,0.000000,,2013-04-22 08:42:00,
2013-04-22 04:53:00,35.0,29.0,-100.00,SE,127,12.0,19.0,77,0.00,,,0.00,0.000000,,2013-04-22 08:53:00,
2013-04-22 05:01:00,35.0,29.0,-100.00,SE,127,12.0,19.0,77,0.00,,,0.00,0.000000,,2013-04-22 09:01:00,
2013-04-22 05:11:00,35.0,29.0,-100.00,SE,127,12.0,19.0,77,0.00,,,0.00,0.000000,,2013-04-22 09:11:00,
2013-04-22 05:42:00,36.0,29.0,-100.00,SE,141,10.0,17.0,76,0.00,,,0.00,0.000000,,2013-04-22 09:42:00,
2013-04-22 05:53:00,36.0,29.0,-100.00,SE,141,10.0,17.0,76,0.00,,,0.00,0.000000,,2013-04-22 09:53:00,
2013-04-22 06:03:00,36.0,29.0,-100.00,SE,141,10.0,17.0,76,0.00,,,0.00,0.000000,,2013-04-22 10:03:00,
2013-04-22 06:12:00,36.0,29.0,-100.00,SE,141,10.0,17.0,76,0.00,,,0.00,0.000000,,2013-04-22 10:12:00,
2013-04-22 06:42:00,36.0,28.0,-100.00,SE,134,12.0,15.0,73,0.00,,,0.00,0.000000,,2013-04-22 10:42:00,
2013-04-22 06:53:00,36.0,28.0,-100.00,SE,134,12.0,15.0,73,0.00,,,0.00,0.000000,,2013-04-22 10:53:00,
2013-04-22 07:02:00,36.0,28.0,-100.00,SE,134,12.0,15.0,73,0.00,,,0.00,0.000000,,2013-04-22 11:02:00,
2013-04-22 07:12:00,36.0,28.0,-100.00,SE,134,12.0,15.0,73,0.00,,,0.00,0.000000,,2013-04-22 11:12:00,
2013-04-22 07:42:00,36.0,28.0,-100.00,SE,131,11.0,17.0,71,0.00,,,0.00,6.000000,,2013-04-22 11:42:00,
2013-04-22 07:53:00,36.0,28.0,-100.00,SE,131,11.0,17.0,71,0.00,,,0.00,6.000000,,2013-04-22 11:53:00,
2013-04-22 08:02:00,36.0,28.0,-100.00,SE,131,11.0,17.0,71,0.00,,,0.00,6.000000,,2013-04-22 12:02:00,
2013-04-22 08:12:00,36.0,28.0,-100.00,SE,131,11.0,17.0,71,0.00,,,0.00,6.000000,,2013-04-22 12:12:00,
2013-04-22 08:42:00,37.0,27.0,-100.00,SE,138,10.0,17.0,67,0.00,,,0.00,53.000000,,2013-04-22 12:42:00,
2013-04-22 08:52:00,37.0,27.0,-100.00,SE,138,10.0,17.0,67,0.00,,,0.00,53.000000,,2013-04-22 12:52:00,
2013-04-22 09:01:00,37.0,27.0,-100.00,SE,138,10.0,17.0,67,0.00,,,0.00,53.000000,,2013-04-22 13:01:00,
2013-04-22 09:11:00,37.0,27.0,-100.00,SE,138,10.0,17.0,67,0.00,,,0.00,53.000000,,2013-04-22 13:11:00,
2013-04-22 09:42:00,39.0,28.0,-100.00,SE,140,12.0,17.0,65,0.00,,,0.00,164.000000,,2013-04-22 13:42:00,
2013-04-22 09:53:00,39.0,28.0,-100.00,SE,140,12.0,17.0,65,0.00,,,0.00,164.000000,,2013-04-22 13:53:00,
2013-04-22 10:02:00,39.0,28.0,-100.00,SE,140,12.0,17.0,65,0.00,,,0.00,164.000000,,2013-04-22 14:02:00,
2013-04-22 10:12:00,39.0,28.0,-100.00,SE,140,12.0,17.0,65,0.00,,,0.00,164.000000,,2013-04-22 14:12:00,
2013-04-22 10:42:00,40.0,29.0,-100.00,SE,137,10.0,16.0,64,0.00,,,0.00,171.000000,,2013-04-22 14:42:00,
2013-04-22 10:52:00,40.0,29.0,-100.00,SE,137,10.0,16.0,64,0.00,,,0.00,171.000000,,2013-04-22 14:52:00,
2013-04-22 11:02:00,40.0,29.0,-100.00,SE,137,10.0,16.0,64,0.00,,,0.00,171.000000,,2013-04-22 15:02:00,
2013-04-22 11:12:00,40.0,29.0,-100.00,SE,137,10.0,16.0,64,0.00,,,0.00,171.000000,,2013-04-22 15:12:00,
2013-04-22 11:43:00,42.0,28.0,-100.00,SE,139,11.0,15.0,58,0.00,,,0.00,327.000000,,2013-04-22 15:43:00,
2013-04-22 11:53:00,42.0,28.0,-100.00,SE,139,11.0,15.0,58,0.00,,,0.00,327.000000,,2013-04-22 15:53:00,
2013-04-22 12:03:00,42.0,28.0,-100.00,SE,139,11.0,15.0,58,0.00,,,0.00,327.000000,,2013-04-22 16:03:00,
2013-04-22 12:12:00,42.0,28.0,-100.00,SE,139,11.0,15.0,58,0.00,,,0.00,327.000000,,2013-04-22 16:12:00,
2013-04-22 12:42:00,47.0,31.0,-100.00,SSE,148,8.0,15.0,54,0.00,,,0.00,459.000000,,2013-04-22 16:42:00,
2013-04-22 12:52:00,47.0,31.0,-100.00,SSE,148,8.0,15.0,54,0.00,,,0.00,459.000000,,2013-04-22 16:52:00,
2013-04-22 13:02:00,47.0,31.0,-100.00,SSE,148,8.0,15.0,54,0.00,,,0.00,459.000000,,2013-04-22 17:02:00,
2013-04-22 13:12:00,47.0,31.0,-100.00,SSE,148,8.0,15.0,54,0.00,,,0.00,459.000000,,2013-04-22 17:12:00,
2013-04-22 13:32:00,52.0,33.0,-100.00,SSE,163,9.0,13.0,48,0.00,,,0.00,523.000000,,2013-04-22 17:32:00,
2013-04-22 13:43:00,52.0,33.0,-100.00,SSE,163,9.0,13.0,48,0.00,,,0.00,523.000000,,2013-04-22 17:43:00,
2013-04-22 13:52:00,52.0,33.0,-100.00,SSE,163,9.0,13.0,48,0.00,,,0.00,523.000000,,2013-04-22 17:52:00,
2013-04-22 14:02:00,52.0,33.0,-100.00,SSE,163,9.0,13.0,48,0.00,,,0.00,523.000000,,2013-04-22 18:02:00,
2013-04-22 14:12:00,52.0,33.0,-100.00,SSE,163,9.0,13.0,48,0.00,,,0.00,523.000000,,2013-04-22 18:12:00,
2013-04-22 14:42:00,52.0,32.0,-100.00,SE,137,8.0,15.0,46,0.00,,,0.00,560.000000,,2013-04-22 18:42:00,
2013-04-22 14:52:00,52.0,32.0,-100.00,SE,137,8.0,15.0,46,0.00,,,0.00,560.000000,,2013-04-22 18:52:00,
2013-04-22 15:02:00,52.0,32.0,-100.00,SE,137,8.0,15.0,46,0.00,,,0.00,560.000000,,2013-04-22 19:02:00,
2013-04-22 15:12:00,52.0,32.0,-100.00,SE,137,8.0,15.0,46,0.00,,,0.00,560.000000,,2013-04-22 19:12:00,
2013-04-22 15:42:00,54.0,34.0,-100.00,SSE,157,8.0,11.0,46,0.00,,,0.00,396.000000,,2013-04-22 19:42:00,
2013-04-22 15:53:00,54.0,34.0,-100.00,SSE,157,8.0,11.0,46,0.00,,,0.00,396.000000,,2013-04-22 19:53:00,
2013-04-22 16:02:00,54.0,34.0,-100.00,SSE,157,8.0,11.0,46,0.00,,,0.00,396.000000,,2013-04-22 20:02:00,
2013-04-22 16:11:00,54.0,34.0,-100.00,SSE,157,8.0,11.0,46,0.00,,,0.00,396.000000,,2013-04-22 20:11:00,
2013-04-22 16:42:00,55.0,34.0,-100.00,SSE,152,6.0,11.0,45,0.00,,,0.00,389.000000,,2013-04-22 20:42:00,
2013-04-22 16:52:00,55.0,34.0,-100.00,SSE,152,6.0,11.0,45,0.00,,,0.00,389.000000,,2013-04-22 20:52:00,
2013-04-22 17:02:00,55.0,34.0,-100.00,SSE,152,6.0,11.0,45,0.00,,,0.00,389.000000,,2013-04-22 21:02:00,
2013-04-22 17:12:00,55.0,34.0,-100.00,SSE,152,6.0,11.0,45,0.00,,,0.00,389.000000,,2013-04-22 21:12:00,
2013-04-22 17:43:00,54.0,33.0,-100.00,SE,128,7.0,10.0,44,0.00,,,0.00,428.000000,,2013-04-22 21:43:00,
2013-04-22 17:53:00,54.0,33.0,-100.00,SE,128,7.0,10.0,44,0.00,,,0.00,428.000000,,2013-04-22 21:53:00,
2013-04-22 18:03:00,54.0,33.0,-100.00,SE,128,7.0,10.0,44,0.00,,,0.00,428.000000,,2013-04-22 22:03:00,
2013-04-22 18:12:00,54.0,33.0,-100.00,SE,128,7.0,10.0,44,0.00,,,0.00,428.000000,,2013-04-22 22:12:00,
2013-04-22 18:42:00,50.0,32.0,-100.00,East,79,10.0,13.0,49,0.00,,,0.00,215.000000,,2013-04-22 22:42:00,
2013-04-22 18:52:00,50.0,32.0,-100.00,East,79,10.0,13.0,49,0.00,,,0.00,215.000000,,2013-04-22 22:52:00,
2013-04-22 19:02:00,50.0,32.0,-100.00,East,79,10.0,13.0,49,0.00,,,0.00,215.000000,,2013-04-22 23:02:00,
2013-04-22 19:12:00,50.0,32.0,-100.00,East,79,10.0,13.0,49,0.00,,,0.00,215.000000,,2013-04-22 23:12:00,
2013-04-22 19:43:00,46.0,30.0,-100.00,East,80,10.0,16.0,54,0.00,,,0.00,136.000000,,2013-04-22 23:43:00,
2013-04-22 19:52:00,46.0,30.0,-100.00,East,80,10.0,16.0,54,0.00,,,0.00,136.000000,,2013-04-22 23:52:00,
2013-04-22 20:02:00,46.0,30.0,-100.00,East,80,10.0,16.0,54,0.00,,,0.00,136.000000,,2013-04-23 00:02:00,
2013-04-22 20:12:00,46.0,30.0,-100.00,East,80,10.0,16.0,54,0.00,,,0.00,136.000000,,2013-04-23 00:12:00,
2013-04-22 21:42:00,39.0,27.0,-100.00,NE,52,6.0,8.0,62,-99.99,,,0.00,5.000000,,2013-04-23 01:42:00,
2013-04-22 21:52:00,39.0,27.0,-100.00,NE,52,6.0,8.0,62,-99.99,,,0.00,5.000000,,2013-04-23 01:52:00,
2013-04-22 22:02:00,39.0,27.0,-100.00,NE,52,6.0,8.0,62,-99.99,,,0.00,5.000000,,2013-04-23 02:02:00,
2013-04-22 22:12:00,39.0,27.0,-100.00,NE,52,6.0,8.0,62,-99.99,,,0.00,5.000000,,2013-04-23 02:12:00,
2013-04-22 22:42:00,39.0,27.0,-100.00,ENE,62,5.0,8.0,62,0.00,,,0.00,0.000000,,2013-04-23 02:42:00,
2013-04-22 22:52:00,39.0,27.0,-100.00,ENE,62,5.0,8.0,62,0.00,,,0.00,0.000000,,2013-04-23 02:52:00,
2013-04-22 23:02:00,39.0,27.0,-100.00,ENE,62,5.0,8.0,62,0.00,,,0.00,0.000000,,2013-04-23 03:02:00,
2013-04-22 23:11:00,39.0,27.0,-100.00,ENE,62,5.0,8.0,62,0.00,,,0.00,0.000000,,2013-04-23 03:11:00,
2013-04-22 23:43:00,38.0,28.0,-100.00,East,81,6.0,9.0,68,0.00,,,0.00,0.000000,,2013-04-23 03:43:00,
2013-04-22 23:53:00,38.0,28.0,-100.00,East,81,6.0,9.0,68,0.00,,,0.00,0.000000,,2013-04-23 03:53:00,